createdAt,value
2019-03-23T00:02:05.406Z,99.90
2019-03-23T00:04:42.870Z,99.90
2019-03-23T00:07:16.060Z,99.90
2019-03-23T00:09:47.591Z,99.90
2019-03-23T00:15:06.261Z,99.90
2019-03-23T00:17:36.477Z,99.90
2019-03-23T00:20:15.818Z,99.90
2019-03-23T00:22:49.244Z,99.90
2019-03-23T00:25:19.233Z,99.90
2019-03-23T00:28:01.639Z,99.90
2019-03-23T00:30:35.243Z,99.90
2019-03-23T00:33:17.823Z,99.90
2019-03-23T00:35:53.912Z,99.90
2019-03-23T00:38:43.632Z,99.90
2019-03-23T01:01:58.168Z,99.90
2019-03-23T01:04:27.971Z,99.90
2019-03-23T01:06:57.866Z,99.90
2019-03-23T01:09:28.884Z,99.90
2019-03-23T01:11:58.714Z,99.90
2019-03-23T01:14:28.877Z,99.90
2019-03-23T01:16:58.854Z,99.90
2019-03-23T01:19:28.673Z,99.90
2019-03-23T01:21:58.390Z,99.90
2019-03-23T01:24:28.220Z,99.90
2019-03-23T01:26:58.037Z,99.90
2019-03-23T01:29:28.720Z,99.90
2019-03-23T01:32:08.118Z,99.90
2019-03-23T01:34:41.032Z,99.90
2019-03-23T01:37:10.917Z,99.90
2019-03-23T01:39:40.743Z,99.90
2019-03-23T01:42:10.543Z,99.90
2019-03-23T01:44:40.584Z,99.90
2019-03-23T01:47:10.725Z,99.90
2019-03-23T01:49:40.893Z,99.90
2019-03-23T02:00:00.016Z,99.90
2019-03-23T02:02:48.607Z,99.90
2019-03-23T02:05:22.376Z,99.90
2019-03-23T02:08:01.401Z,99.90
2019-03-23T02:10:52.005Z,99.90
2019-03-23T02:13:22.326Z,99.90
2019-03-23T02:15:55.721Z,99.90
2019-03-23T02:18:25.739Z,99.90
2019-03-23T02:20:56.135Z,99.90
2019-03-23T02:23:26.394Z,99.90
2019-03-23T02:25:56.506Z,99.90
2019-03-23T02:28:55.094Z,99.90
2019-03-23T02:31:28.293Z,99.90
2019-03-23T02:34:15.910Z,99.90
2019-03-23T02:36:45.776Z,99.90
2019-03-23T02:39:15.548Z,99.90
2019-03-23T02:41:45.408Z,99.90
2019-03-23T02:44:16.340Z,99.90
2019-03-23T02:46:49.660Z,99.90
2019-03-23T02:49:37.904Z,99.90
2019-03-23T02:52:17.627Z,99.90
2019-03-23T02:54:48.293Z,99.90
2019-03-23T02:57:25.019Z,99.90
2019-03-23T02:59:55.274Z,99.90
2019-03-23T03:02:25.300Z,99.90
2019-03-23T03:04:58.720Z,99.90
2019-03-23T03:07:40.970Z,99.90
2019-03-23T03:10:00.773Z,99.90
2019-03-23T03:13:07.113Z,99.90
2019-03-23T03:15:40.111Z,99.90
2019-03-23T03:18:11.671Z,99.90
2019-03-23T03:20:41.920Z,99.90
2019-03-23T03:23:12.155Z,99.90
2019-03-23T03:25:42.553Z,99.90
2019-03-23T03:28:16.057Z,99.90
2019-03-23T03:30:49.594Z,99.90
2019-03-23T03:36:16.292Z,99.90
2019-03-23T03:42:09.798Z,99.90
2019-03-23T03:44:42.819Z,99.90
2019-03-23T03:47:12.895Z,99.90
2019-03-23T03:49:42.732Z,99.90
2019-03-23T03:52:12.627Z,99.90
2019-03-23T03:54:42.736Z,99.90
2019-03-23T03:57:12.592Z,99.90
2019-03-23T03:59:42.712Z,99.90
2019-03-23T04:02:12.768Z,99.90
2019-03-23T04:05:01.804Z,99.90
2019-03-23T04:07:31.659Z,99.90
2019-03-23T04:10:01.378Z,99.90
2019-03-23T04:12:31.254Z,99.90
2019-03-23T04:15:01.239Z,99.90
2019-03-23T04:17:31.049Z,99.90
2019-03-23T04:20:01.131Z,99.90
2019-03-23T04:22:30.970Z,99.90
2019-03-23T04:25:01.005Z,99.90
2019-03-23T04:27:30.910Z,99.90
2019-03-23T04:30:00.805Z,99.90
2019-03-23T04:32:30.788Z,99.90
2019-03-23T04:35:00.598Z,99.90
2019-03-23T04:37:30.557Z,99.90
2019-03-23T04:40:00.532Z,99.90
2019-03-23T04:42:30.556Z,99.90
2019-03-23T04:45:00.408Z,99.90
2019-03-23T04:47:30.943Z,99.90
2019-03-23T04:50:08.319Z,99.90
2019-03-23T04:52:42.123Z,99.90
2019-03-23T04:56:06.545Z,99.90
2019-03-23T04:58:58.960Z,99.90
2019-03-23T05:01:29.208Z,99.90
2019-03-23T05:03:59.727Z,99.90
2019-03-23T05:06:30.266Z,99.90
2019-03-23T05:09:05.505Z,99.90
2019-03-23T05:11:36.117Z,99.90
2019-03-23T05:14:06.230Z,99.90
2019-03-23T05:16:36.594Z,99.90
2019-03-23T05:19:07.110Z,99.90
2019-03-23T05:21:37.844Z,99.90
2019-03-23T05:24:08.168Z,99.90
2019-03-23T05:26:38.560Z,99.90
2019-03-23T05:29:09.300Z,99.90
2019-03-23T05:31:39.587Z,99.90
2019-03-23T05:34:09.989Z,99.90
2019-03-23T05:36:43.379Z,99.90
2019-03-23T05:39:13.773Z,99.90
2019-03-23T05:41:44.265Z,99.90
2019-03-23T05:44:14.626Z,99.90
2019-03-23T05:46:44.711Z,99.90
2019-03-23T05:49:15.158Z,99.90
2019-03-23T05:51:54.306Z,99.90
2019-03-23T05:54:24.831Z,99.90
2019-03-23T05:56:55.598Z,99.90
2019-03-23T05:59:26.179Z,99.90
2019-03-23T06:02:02.534Z,99.90
2019-03-23T06:05:09.266Z,99.90
2019-03-23T06:07:42.459Z,99.90
2019-03-23T06:10:12.784Z,99.90
2019-03-23T06:12:44.238Z,99.90
2019-03-23T06:15:14.596Z,99.90
2019-03-23T06:17:45.133Z,99.90
2019-03-23T06:20:18.488Z,99.90
2019-03-23T06:22:48.842Z,99.90
2019-03-23T06:27:48.509Z,99.90
2019-03-23T06:30:20.292Z,99.90
2019-03-23T06:32:50.822Z,99.90
2019-03-23T06:35:27.678Z,99.90
2019-03-23T06:38:06.216Z,99.90
2019-03-23T06:52:23.315Z,99.90
2019-03-23T06:54:56.914Z,99.90
2019-03-23T06:57:27.649Z,99.90
2019-03-23T06:59:57.735Z,99.90
2019-03-23T07:02:33.455Z,99.90
2019-03-23T07:05:04.429Z,99.90
2019-03-23T07:07:35.997Z,99.90
2019-03-23T07:10:07.918Z,99.90
2019-03-23T07:12:41.572Z,99.90
2019-03-23T07:15:20.072Z,99.90
2019-03-23T07:17:44.856Z,99.90
2019-03-23T07:20:18.432Z,99.90
2019-03-23T07:22:49.165Z,99.90
2019-03-23T07:25:19.439Z,99.90
2019-03-23T07:27:56.215Z,99.90
2019-03-23T07:30:26.642Z,99.90
2019-03-23T07:32:57.607Z,99.90
2019-03-23T07:35:37.303Z,99.90
2019-03-23T07:38:08.165Z,99.90
2019-03-23T07:40:43.858Z,99.90
2019-03-23T07:43:14.288Z,99.90
2019-03-23T07:45:44.972Z,92.90
2019-03-23T07:48:15.372Z,92.30
2019-03-23T07:50:45.780Z,75.40
2019-03-23T07:53:17.577Z,82.00
2019-03-23T07:55:47.972Z,71.70
2019-03-23T07:58:18.432Z,63.70
2019-03-23T08:00:48.602Z,65.00
2019-03-23T08:03:27.994Z,57.30
2019-03-23T08:05:58.014Z,58.20
2019-03-23T08:08:28.337Z,53.30
2019-03-23T08:10:58.519Z,52.60
2019-03-23T08:13:29.072Z,51.80
2019-03-23T08:15:59.248Z,49.50
2019-03-23T08:18:29.428Z,48.20
2019-03-23T08:20:59.841Z,46.10
2019-03-23T08:23:30.345Z,45.60
2019-03-23T08:26:01.628Z,44.30
2019-03-23T08:28:32.535Z,45.70
2019-03-23T08:31:02.738Z,42.20
2019-03-23T08:33:32.961Z,42.70
2019-03-23T08:36:04.566Z,37.10
2019-03-23T08:38:34.659Z,38.00
2019-03-23T08:41:04.584Z,38.60
2019-03-23T08:43:34.581Z,37.00
2019-03-23T08:46:06.848Z,36.80
2019-03-23T08:48:36.898Z,37.90
2019-03-23T08:51:06.755Z,36.20
2019-03-23T08:53:36.849Z,35.70
2019-03-23T08:56:06.891Z,34.60
2019-03-23T08:58:34.821Z,35.00
2019-03-23T09:01:04.838Z,33.80
2019-03-23T09:03:34.798Z,34.20
2019-03-23T09:06:04.657Z,35.80
2019-03-23T09:08:34.468Z,36.30
2019-03-23T09:11:04.305Z,34.40
2019-03-23T09:13:40.670Z,33.00
2019-03-23T09:16:06.050Z,33.10
2019-03-23T09:18:35.997Z,33.30
2019-03-23T09:21:05.936Z,32.70
2019-03-23T09:23:36.158Z,32.90
2019-03-23T09:26:06.236Z,30.60
2019-03-23T09:28:36.274Z,28.70
2019-03-23T09:31:06.272Z,27.60
2019-03-23T09:33:36.248Z,29.70
2019-03-23T09:36:06.160Z,27.20
2019-03-23T09:38:36.016Z,28.50
2019-03-23T09:41:05.899Z,28.40
2019-03-23T09:43:35.948Z,26.70
2019-03-23T09:46:05.974Z,26.20
2019-03-23T09:48:36.127Z,26.80
2019-03-23T09:51:06.244Z,26.60
2019-03-23T09:53:36.193Z,28.00
2019-03-23T09:56:05.965Z,27.00
2019-03-23T09:58:36.003Z,26.50
2019-03-23T10:01:05.795Z,26.60
2019-03-23T10:03:35.579Z,25.70
2019-03-23T10:06:06.056Z,27.50
2019-03-23T10:08:35.942Z,25.30
2019-03-23T10:11:05.743Z,26.00
2019-03-23T10:13:35.636Z,25.80
2019-03-23T10:16:05.904Z,27.80
2019-03-23T10:18:36.104Z,28.90
2019-03-23T10:21:05.999Z,27.00
2019-03-23T10:23:36.057Z,26.90
2019-03-23T10:26:06.035Z,26.30
2019-03-23T10:28:36.095Z,27.40
2019-03-23T10:31:05.966Z,26.60
2019-03-23T10:33:35.923Z,28.30
2019-03-23T10:36:05.874Z,27.40
2019-03-23T10:38:35.823Z,28.70
2019-03-23T10:41:05.597Z,27.30
2019-03-23T10:43:35.679Z,28.30
2019-03-23T10:46:05.761Z,28.00
2019-03-23T10:48:36.085Z,27.90
2019-03-23T10:51:05.984Z,30.70
2019-03-23T10:53:35.845Z,28.80
2019-03-23T10:56:09.969Z,28.80
2019-03-23T10:58:43.137Z,28.30
2019-03-23T11:01:16.162Z,29.60
2019-03-23T11:03:46.268Z,30.00
2019-03-23T11:06:16.445Z,27.90
2019-03-23T11:08:46.564Z,28.20
2019-03-23T11:11:16.891Z,29.50
2019-03-23T11:13:47.315Z,28.20
2019-03-23T11:16:17.437Z,27.40
2019-03-23T11:18:48.884Z,27.60
2019-03-23T11:21:19.007Z,29.60
2019-03-23T11:23:49.328Z,28.10
2019-03-23T11:26:19.403Z,29.40
2019-03-23T11:28:49.672Z,27.20
2019-03-23T11:31:19.787Z,27.90
2019-03-23T11:33:49.603Z,28.90
2019-03-23T11:36:19.721Z,29.90
2019-03-23T11:38:50.884Z,28.90
2019-03-23T11:41:20.984Z,25.70
2019-03-23T11:43:50.756Z,27.40
2019-03-23T11:46:20.497Z,27.00
2019-03-23T11:48:50.279Z,29.10
2019-03-23T11:51:20.069Z,26.40
2019-03-23T11:54:02.858Z,28.50
2019-03-23T11:56:33.132Z,26.40
2019-03-23T11:59:03.086Z,27.20
2019-03-23T12:01:32.871Z,26.50
2019-03-23T12:04:02.676Z,26.40
2019-03-23T12:06:32.411Z,26.50
2019-03-23T12:09:02.154Z,28.80
2019-03-23T12:11:32.049Z,26.30
2019-03-23T12:14:01.779Z,27.10
2019-03-23T12:16:31.541Z,26.70
2019-03-23T12:19:01.605Z,26.30
2019-03-23T12:21:31.554Z,25.80
2019-03-23T12:24:01.885Z,25.60
2019-03-23T12:26:31.636Z,26.10
2019-03-23T12:29:01.378Z,28.80
2019-03-23T12:31:31.375Z,27.60
2019-03-23T12:34:03.936Z,29.20
2019-03-23T12:36:33.712Z,28.70
2019-03-23T12:39:05.203Z,32.10
2019-03-23T12:41:35.092Z,29.00
2019-03-23T12:44:04.946Z,28.10
2019-03-23T12:46:34.662Z,29.30
2019-03-23T12:49:04.427Z,28.10
2019-03-23T12:51:37.953Z,30.00
2019-03-23T12:54:07.745Z,29.10
2019-03-23T12:56:38.745Z,29.40
2019-03-23T12:59:08.532Z,28.60
2019-03-23T13:01:38.425Z,28.10
2019-03-23T13:04:08.940Z,27.70
2019-03-23T13:06:39.049Z,28.20
2019-03-23T13:09:10.261Z,27.80
2019-03-23T13:11:40.583Z,28.20
2019-03-23T13:14:10.517Z,29.50
2019-03-23T13:16:40.596Z,31.50
2019-03-23T13:19:10.574Z,29.70
2019-03-23T13:21:40.601Z,29.70
2019-03-23T13:24:12.883Z,29.10
2019-03-23T13:26:42.691Z,28.80
2019-03-23T13:29:13.286Z,29.90
2019-03-23T13:31:43.041Z,28.80
2019-03-23T13:34:13.239Z,29.20
2019-03-23T13:36:43.311Z,29.80
2019-03-23T13:39:13.213Z,29.90
2019-03-23T13:41:51.066Z,29.80
2019-03-23T13:44:21.415Z,30.00
2019-03-23T13:46:53.547Z,28.80
2019-03-23T13:49:23.755Z,30.30
2019-03-23T13:51:54.339Z,29.50
2019-03-23T13:54:24.440Z,29.20
2019-03-23T13:56:54.561Z,29.50
2019-03-23T13:59:24.717Z,29.30
2019-03-23T14:01:54.689Z,28.80
2019-03-23T14:04:25.253Z,29.20
2019-03-23T14:06:57.252Z,29.40
2019-03-23T14:09:27.069Z,30.50
2019-03-23T14:11:56.930Z,28.90
2019-03-23T14:14:26.740Z,29.70
2019-03-23T14:16:56.701Z,29.80
2019-03-23T14:19:26.914Z,30.10
2019-03-23T14:21:56.590Z,30.50
2019-03-23T14:24:26.328Z,30.20
2019-03-23T14:26:56.044Z,32.40
2019-03-23T14:29:31.322Z,30.70
2019-03-23T14:32:01.181Z,30.00
2019-03-23T14:34:31.101Z,31.10
2019-03-23T14:37:01.044Z,31.30
2019-03-23T14:39:31.220Z,32.00
2019-03-23T14:42:05.176Z,31.30
2019-03-23T14:44:33.229Z,30.80
2019-03-23T14:47:22.174Z,30.80
2019-03-23T14:49:52.067Z,32.60
2019-03-23T14:52:22.494Z,31.10
2019-03-23T14:54:54.031Z,31.50
2019-03-23T14:57:23.962Z,32.50
2019-03-23T14:59:54.102Z,31.80
2019-03-23T15:02:24.319Z,31.70
2019-03-23T15:04:54.131Z,31.20
2019-03-23T15:07:24.272Z,31.00
2019-03-23T15:09:54.373Z,30.20
2019-03-23T15:12:25.400Z,31.00
2019-03-23T15:14:55.589Z,31.30
2019-03-23T15:17:25.570Z,32.00
2019-03-23T15:19:56.085Z,31.30
2019-03-23T15:22:45.964Z,30.90
2019-03-23T15:25:18.139Z,32.10
2019-03-23T15:27:48.029Z,31.70
2019-03-23T15:30:18.074Z,32.50
2019-03-23T15:32:48.262Z,30.60
2019-03-23T15:35:27.163Z,31.30
2019-03-23T15:37:56.927Z,32.20
2019-03-23T15:40:26.683Z,31.40
2019-03-23T15:42:56.579Z,30.90
2019-03-23T15:45:26.461Z,32.60
2019-03-23T15:47:56.446Z,33.50
2019-03-23T15:50:26.500Z,33.00
2019-03-23T15:52:58.386Z,32.20
2019-03-23T15:55:31.399Z,32.20
2019-03-23T15:58:03.857Z,33.80
2019-03-23T16:00:36.791Z,31.90
2019-03-23T16:03:07.335Z,32.30
2019-03-23T16:05:41.509Z,32.70
2019-03-23T16:08:20.719Z,32.10
2019-03-23T16:10:50.653Z,33.20
2019-03-23T16:13:20.455Z,32.50
2019-03-23T16:16:59.716Z,32.60
2019-03-23T16:22:57.539Z,33.60
2019-03-23T16:25:29.908Z,33.20
2019-03-23T16:33:04.932Z,34.80
2019-03-23T16:35:35.592Z,35.20
2019-03-23T16:38:06.221Z,36.00
2019-03-23T16:40:42.794Z,36.20
2019-03-23T16:43:21.797Z,36.90
2019-03-23T16:45:55.319Z,37.30
2019-03-23T16:48:33.015Z,37.40
2019-03-23T16:51:13.423Z,37.40
2019-03-23T16:53:43.945Z,38.10
2019-03-23T16:56:17.518Z,37.70
2019-03-23T16:58:48.385Z,38.60
2019-03-23T17:01:19.177Z,38.70
2019-03-23T17:03:57.031Z,39.20
2019-03-23T17:06:46.318Z,40.30
2019-03-23T17:13:08.450Z,41.30
2019-03-23T17:15:39.112Z,41.10
2019-03-23T17:18:19.193Z,41.50
2019-03-23T17:21:11.261Z,41.30
2019-03-23T17:23:51.293Z,41.40
2019-03-23T17:26:23.854Z,41.40
2019-03-23T17:28:54.083Z,41.40
2019-03-23T17:31:24.435Z,42.60
2019-03-23T17:40:52.929Z,43.30
2019-03-23T17:47:18.264Z,42.90
2019-03-23T17:49:52.488Z,44.20
2019-03-23T17:52:24.749Z,44.00
2019-03-23T17:54:54.781Z,44.00
2019-03-23T17:57:26.417Z,45.00
2019-03-23T17:59:56.417Z,47.40
2019-03-23T18:02:26.498Z,47.40
2019-03-23T18:04:56.338Z,48.40
2019-03-23T18:07:26.594Z,48.30
2019-03-23T18:09:56.923Z,49.80
2019-03-23T18:12:35.687Z,49.30
2019-03-23T18:15:05.986Z,49.80
2019-03-23T18:17:35.983Z,51.10
2019-03-23T18:20:06.202Z,52.10
2019-03-23T18:22:36.159Z,51.70
2019-03-23T18:25:06.231Z,51.20
2019-03-23T18:27:36.054Z,52.50
2019-03-23T18:30:06.985Z,52.40
2019-03-23T18:32:37.068Z,52.80
2019-03-23T18:35:15.247Z,52.80
2019-03-23T18:37:41.338Z,53.00
2019-03-23T18:40:11.708Z,53.80
2019-03-23T18:42:41.442Z,53.60
2019-03-23T18:45:11.256Z,54.50
2019-03-23T18:47:41.032Z,54.70
2019-03-23T18:50:10.992Z,55.40
2019-03-23T18:52:40.989Z,55.30
2019-03-23T18:55:10.747Z,56.80
2019-03-23T18:57:40.825Z,57.30
2019-03-23T19:00:13.240Z,56.70
2019-03-23T19:02:42.697Z,57.80
2019-03-23T19:05:12.573Z,57.10
2019-03-23T19:07:49.731Z,57.50
2019-03-23T19:10:22.838Z,58.20
2019-03-23T19:12:53.489Z,59.00
2019-03-23T19:15:23.949Z,59.60
2019-03-23T19:17:53.725Z,60.00
2019-03-23T19:20:23.910Z,60.00
2019-03-23T19:22:53.660Z,61.10
2019-03-23T19:25:23.364Z,60.80
2019-03-23T19:27:53.126Z,62.10
2019-03-23T19:30:23.369Z,63.60
2019-03-23T19:32:53.174Z,65.00
2019-03-23T19:35:22.984Z,65.80
2019-03-23T19:37:52.797Z,71.30
2019-03-23T19:40:22.512Z,70.80
2019-03-23T19:42:52.401Z,71.10
2019-03-23T19:45:22.171Z,71.00
2019-03-23T19:47:52.144Z,72.70
2019-03-23T19:50:21.900Z,73.60
2019-03-23T19:52:51.988Z,74.70
2019-03-23T19:55:21.787Z,76.80
2019-03-23T19:57:54.567Z,76.00
2019-03-23T20:00:23.651Z,79.00
2019-03-23T20:02:53.738Z,80.70
2019-03-23T20:05:24.764Z,82.50
2019-03-23T20:07:55.038Z,84.40
2019-03-23T20:10:25.455Z,85.30
2019-03-23T20:12:55.409Z,89.10
2019-03-23T20:15:25.291Z,90.30
2019-03-23T20:17:55.081Z,91.30
2019-03-23T20:20:25.051Z,93.10
2019-03-23T20:22:54.973Z,95.00
2019-03-23T20:25:24.834Z,96.00
2019-03-23T20:27:55.401Z,96.90
2019-03-23T20:30:25.211Z,98.60
2019-03-23T20:32:55.079Z,99.90
2019-03-23T20:35:25.217Z,99.90
2019-03-23T20:37:55.205Z,99.90
2019-03-23T20:40:25.479Z,99.90
2019-03-23T20:42:55.398Z,99.90
2019-03-23T20:45:31.595Z,99.90
2019-03-23T20:48:01.509Z,99.90
2019-03-23T20:50:31.329Z,99.90
2019-03-23T20:53:01.095Z,99.90
2019-03-23T20:55:31.517Z,99.90
2019-03-23T20:58:01.559Z,99.90
2019-03-23T21:00:31.371Z,99.90
2019-03-23T21:03:01.340Z,99.90
2019-03-23T21:05:34.167Z,99.90
2019-03-23T21:08:03.292Z,99.90
2019-03-23T21:10:42.026Z,99.90
2019-03-23T21:13:11.947Z,99.90
2019-03-23T21:15:42.033Z,99.90
2019-03-23T21:18:12.085Z,99.90
2019-03-23T21:20:42.570Z,99.90
2019-03-23T21:23:12.775Z,99.90
2019-03-23T21:25:42.792Z,99.90
2019-03-23T21:28:13.144Z,99.90
2019-03-23T21:30:45.673Z,99.90
2019-03-23T21:33:16.004Z,99.90
2019-03-23T21:35:46.648Z,99.90
2019-03-23T21:38:16.459Z,99.90
2019-03-23T21:41:34.429Z,99.90
2019-03-23T21:45:03.708Z,99.90
2019-03-23T21:47:34.541Z,99.90
2019-03-23T21:50:18.444Z,99.90
2019-03-23T21:52:50.100Z,99.90
2019-03-23T21:55:21.679Z,99.90
2019-03-23T21:58:08.137Z,99.90
2019-03-23T22:00:39.549Z,99.90
2019-03-23T22:03:23.571Z,99.90
2019-03-23T22:05:50.810Z,99.90
2019-03-23T22:08:21.377Z,99.90
2019-03-23T22:10:51.879Z,99.90
2019-03-23T22:13:22.999Z,99.90
2019-03-23T22:15:53.519Z,99.90
2019-03-23T22:18:23.903Z,99.90
2019-03-23T22:23:57.009Z,99.90
2019-03-23T22:27:19.185Z,99.90
2019-03-23T22:30:00.563Z,99.90
2019-03-23T22:32:37.079Z,99.90
2019-03-23T22:35:08.352Z,99.90
2019-03-23T22:37:45.614Z,99.90
2019-03-23T22:40:16.449Z,99.90
2019-03-23T22:42:47.082Z,99.90
2019-03-23T22:45:16.933Z,99.90
2019-03-23T22:47:50.681Z,99.90
2019-03-23T22:50:23.339Z,99.90
2019-03-23T22:53:16.815Z,99.90
2019-03-23T22:55:52.081Z,99.90
2019-03-23T22:58:25.351Z,99.90
2019-03-23T23:00:58.597Z,99.90
2019-03-23T23:03:31.226Z,99.90
2019-03-23T23:06:29.734Z,99.90
2019-03-23T23:09:34.185Z,99.90
2019-03-23T23:12:04.508Z,99.90
2019-03-23T23:14:35.014Z,99.90
2019-03-23T23:17:08.232Z,99.90
2019-03-23T23:22:52.801Z,99.90
2019-03-23T23:25:22.588Z,99.90
2019-03-23T23:27:52.476Z,99.90
2019-03-23T23:30:22.314Z,99.90
2019-03-23T23:32:52.137Z,99.90
2019-03-23T23:35:21.902Z,99.90
2019-03-23T23:38:10.589Z,99.90
2019-03-23T23:40:40.394Z,99.90
2019-03-23T23:43:15.038Z,99.90
2019-03-23T23:45:59.894Z,99.90
2019-03-23T23:48:29.752Z,99.90
2019-03-23T23:50:59.603Z,99.90
2019-03-23T23:53:36.607Z,99.90
2019-03-23T23:56:31.764Z,99.90
2019-03-23T23:59:08.282Z,99.90
